createdAt,value
2022-08-22T00:01:06.715Z,101044.47
2022-08-22T00:02:52.803Z,101204.44
2022-08-22T00:02:55.386Z,101067.42
2022-08-22T00:03:11.074Z,101077.38
2022-08-22T00:03:36.501Z,101043.61
2022-08-22T00:06:42.703Z,101035.83
2022-08-22T00:09:31.117Z,101031.20
2022-08-22T00:12:18.032Z,101023.04
2022-08-22T00:15:06.110Z,101024.25
2022-08-22T00:17:30.373Z,101021.84
2022-08-22T00:20:05.612Z,101021.03
2022-08-22T00:22:44.009Z,101016.58
2022-08-22T00:25:00.128Z,101016.38
2022-08-22T00:27:17.311Z,101018.38
2022-08-22T00:29:35.348Z,101017.20
2022-08-22T00:32:08.464Z,101015.70
2022-08-22T00:34:37.640Z,101014.95
2022-08-22T00:37:50.073Z,101000.69
2022-08-22T00:40:54.908Z,101007.59
2022-08-22T00:44:03.507Z,101009.80
2022-08-22T00:47:10.911Z,101010.29
2022-08-22T00:49:55.059Z,101018.96
2022-08-22T00:52:32.535Z,101017.22
2022-08-22T00:54:58.150Z,101013.70
2022-08-22T00:57:45.036Z,101013.91
2022-08-22T01:00:07.120Z,101006.31
2022-08-22T01:02:34.920Z,101004.91
2022-08-22T01:04:42.506Z,101004.24
2022-08-22T01:07:53.373Z,101001.33
2022-08-22T01:10:42.286Z,101001.69
2022-08-22T01:13:07.034Z,101002.38
2022-08-22T01:15:20.033Z,101000.06
2022-08-22T01:18:09.267Z,100998.39
2022-08-22T01:20:48.738Z,100996.89
2022-08-22T01:23:20.698Z,101000.23
2022-08-22T01:26:00.362Z,100999.42
2022-08-22T01:28:16.118Z,100999.02
2022-08-22T01:30:35.981Z,100997.52
2022-08-22T01:34:02.143Z,100992.91
2022-08-22T01:37:12.786Z,100991.73
2022-08-22T01:39:46.634Z,100984.75
2022-08-22T01:42:29.460Z,100982.31
2022-08-22T01:44:52.939Z,100985.11
2022-08-22T01:47:24.556Z,100983.16
2022-08-22T01:49:36.886Z,100986.03
2022-08-22T01:51:57.989Z,100986.34
2022-08-22T01:54:12.920Z,100984.83
2022-08-22T01:56:28.201Z,100984.35
2022-08-22T01:58:40.363Z,100982.07
2022-08-22T02:01:11.975Z,100984.08
2022-08-22T02:04:21.461Z,100986.87
2022-08-22T02:07:32.010Z,100988.74
2022-08-22T02:10:36.894Z,100983.38
2022-08-22T02:12:53.876Z,100976.72
2022-08-22T02:15:13.248Z,100977.36
2022-08-22T02:18:01.149Z,100975.41
2022-08-22T02:20:40.528Z,100975.16
2022-08-22T02:23:38.842Z,100974.53
2022-08-22T02:25:54.985Z,100975.60
2022-08-22T02:28:15.866Z,100976.38
2022-08-22T02:30:46.212Z,100981.60
2022-08-22T02:33:19.322Z,100985.78
2022-08-22T02:35:32.269Z,100983.38
2022-08-22T02:38:09.631Z,100986.61
2022-08-22T02:40:54.927Z,100987.83
2022-08-22T02:43:44.868Z,100986.98
2022-08-22T02:46:33.293Z,100986.40
2022-08-22T02:49:02.350Z,100984.33
2022-08-22T02:51:24.045Z,100987.63
2022-08-22T02:53:57.352Z,100980.84
2022-08-22T02:56:37.500Z,100988.63
2022-08-22T02:59:54.302Z,100986.38
2022-08-22T03:02:49.658Z,100987.24
2022-08-22T03:06:09.866Z,100995.00
2022-08-22T03:09:18.337Z,100992.38
2022-08-22T03:11:44.250Z,100990.24
2022-08-22T03:14:49.723Z,100996.51
2022-08-22T03:17:18.192Z,100994.60
2022-08-22T03:19:41.055Z,101001.87
2022-08-22T03:22:27.191Z,101002.02
2022-08-22T03:25:17.333Z,101002.86
2022-08-22T03:27:58.018Z,101005.39
2022-08-22T03:30:14.006Z,101008.77
2022-08-22T03:33:34.398Z,101012.63
2022-08-22T03:36:08.406Z,101012.28
2022-08-22T03:38:35.220Z,101013.74
2022-08-22T03:41:05.078Z,101018.43
2022-08-22T03:43:59.525Z,101018.03
2022-08-22T03:46:35.077Z,101018.58
2022-08-22T03:49:41.981Z,101023.86
2022-08-22T03:52:24.178Z,101029.33
2022-08-22T03:54:56.367Z,101028.95
2022-08-22T03:57:38.338Z,101030.84
2022-08-22T04:00:32.077Z,101034.65
2022-08-22T04:03:40.873Z,101030.02
2022-08-22T04:06:50.943Z,101031.55
2022-08-22T04:09:44.246Z,101033.29
2022-08-22T04:12:19.610Z,101029.95
2022-08-22T04:14:58.507Z,101031.76
2022-08-22T04:18:01.612Z,101033.10
2022-08-22T04:21:11.592Z,101033.59
2022-08-22T04:23:51.190Z,101036.20
2022-08-22T04:26:11.967Z,101037.00
2022-08-22T04:28:27.172Z,101036.70
2022-08-22T04:31:13.271Z,101034.52
2022-08-22T04:33:49.420Z,101032.67
2022-08-22T04:36:27.456Z,101032.83
2022-08-22T04:39:11.884Z,101034.57
2022-08-22T04:42:32.210Z,101041.95
2022-08-22T04:45:25.364Z,101039.35
2022-08-22T04:47:57.938Z,101036.12
2022-08-22T04:50:29.073Z,101036.86
2022-08-22T04:53:04.812Z,101036.79
2022-08-22T04:55:57.261Z,101041.42
2022-08-22T04:58:59.729Z,101037.93
2022-08-22T05:01:16.966Z,101033.64
2022-08-22T05:03:26.517Z,101035.45
2022-08-22T05:05:41.993Z,101037.91
2022-08-22T05:08:14.643Z,101040.15
2022-08-22T05:10:29.947Z,101039.36
2022-08-22T05:12:44.613Z,101037.96
2022-08-22T05:14:57.093Z,101046.55
2022-08-22T05:17:07.562Z,101045.41
2022-08-22T05:19:31.140Z,101047.56
2022-08-22T05:21:44.941Z,101052.13
2022-08-22T05:24:06.293Z,101049.11
2022-08-22T05:26:41.829Z,101049.11
2022-08-22T05:28:53.431Z,101053.50
2022-08-22T05:31:01.117Z,101052.38
2022-08-22T05:33:46.195Z,101051.81
2022-08-22T05:36:22.025Z,101057.08
2022-08-22T05:38:41.667Z,101054.58
2022-08-22T05:40:59.993Z,101052.17
2022-08-22T05:43:15.948Z,101048.30
2022-08-22T05:45:39.222Z,101050.02
2022-08-22T05:48:14.819Z,101044.86
2022-08-22T05:50:54.320Z,101049.30
2022-08-22T05:53:37.199Z,101059.16
2022-08-22T05:56:25.591Z,101063.73
2022-08-22T05:59:01.292Z,101067.17
2022-08-22T06:01:43.175Z,101078.88
2022-08-22T06:04:24.391Z,101079.55
2022-08-22T06:07:21.638Z,101085.25
2022-08-22T06:09:49.692Z,101085.90
2022-08-22T06:12:48.491Z,101088.46
2022-08-22T06:15:47.798Z,101093.97
2022-08-22T06:18:17.926Z,101097.35
2022-08-22T06:20:50.897Z,101102.91
2022-08-22T06:23:23.673Z,101105.58
2022-08-22T06:25:49.840Z,101109.63
2022-08-22T06:28:15.608Z,101112.86
2022-08-22T06:30:29.857Z,101111.86
2022-08-22T06:32:59.094Z,101111.84
2022-08-22T06:36:00.527Z,101105.79
2022-08-22T06:38:22.564Z,101110.66
2022-08-22T06:40:30.971Z,101113.08
2022-08-22T06:42:50.146Z,101120.46
2022-08-22T06:45:09.393Z,101123.67
2022-08-22T06:47:49.905Z,101122.92
2022-08-22T06:50:03.089Z,101125.56
2022-08-22T06:52:24.850Z,101133.27
2022-08-22T06:54:46.642Z,101141.05
2022-08-22T06:56:57.023Z,101144.52
2022-08-22T06:59:32.942Z,101145.66
2022-08-22T07:01:53.111Z,101143.95
2022-08-22T07:04:28.215Z,101142.02
2022-08-22T07:06:45.292Z,101146.06
2022-08-22T07:08:59.703Z,101145.59
2022-08-22T07:11:29.263Z,101154.09
2022-08-22T07:13:43.996Z,101153.60
2022-08-22T07:16:33.879Z,101151.75
2022-08-22T07:19:14.060Z,101159.69
2022-08-22T07:21:45.285Z,101161.20
2022-08-22T07:24:02.417Z,101159.27
2022-08-22T07:26:44.902Z,101163.40
2022-08-22T07:29:11.282Z,101165.64
2022-08-22T07:31:46.779Z,101158.47
2022-08-22T07:34:18.999Z,101163.80
2022-08-22T07:36:49.670Z,101172.44
2022-08-22T07:39:24.300Z,101176.58
2022-08-22T07:41:56.141Z,101174.73
2022-08-22T07:44:24.517Z,101173.80
2022-08-22T07:47:00.370Z,101168.24
2022-08-22T07:49:25.987Z,101165.16
2022-08-22T07:52:16.837Z,101166.52
2022-08-22T07:54:39.680Z,101169.16
2022-08-22T07:57:10.687Z,101176.16
2022-08-22T07:59:23.488Z,101176.77
2022-08-22T08:01:36.816Z,101177.66
2022-08-22T08:03:44.938Z,101178.95
2022-08-22T08:06:26.951Z,101178.94
2022-08-22T08:08:43.034Z,101188.55
2022-08-22T08:10:51.959Z,101190.87
2022-08-22T08:13:04.757Z,101195.49
2022-08-22T08:15:20.061Z,101195.26
2022-08-22T08:17:41.444Z,101198.11
2022-08-22T08:19:51.870Z,101197.55
2022-08-22T08:22:22.532Z,101200.84
2022-08-22T08:24:42.591Z,101198.90
2022-08-22T08:27:18.828Z,101201.77
2022-08-22T08:29:38.447Z,101205.27
2022-08-22T08:31:49.313Z,101211.50
2022-08-22T08:34:29.431Z,101213.77
2022-08-22T08:36:59.925Z,101214.19
2022-08-22T08:39:23.361Z,101216.78
2022-08-22T08:42:02.651Z,101219.45
2022-08-22T08:44:51.600Z,101219.77
2022-08-22T08:47:29.190Z,101221.09
2022-08-22T08:49:51.081Z,101221.09
2022-08-22T08:52:09.965Z,101224.81
2022-08-22T08:54:44.819Z,101226.44
2022-08-22T08:57:49.599Z,101226.48
2022-08-22T09:00:29.127Z,101228.70
2022-08-22T09:03:06.918Z,101235.92
2022-08-22T09:06:14.023Z,101236.38
2022-08-22T09:08:59.303Z,101239.60
2022-08-22T09:11:46.210Z,101242.49
2022-08-22T09:14:12.034Z,101247.16
2022-08-22T09:17:25.874Z,101244.44
2022-08-22T09:20:29.084Z,101241.52
2022-08-22T09:22:50.527Z,101244.98
2022-08-22T09:25:06.246Z,101246.14
2022-08-22T09:27:45.502Z,101249.60
2022-08-22T09:30:12.380Z,101251.84
2022-08-22T09:33:08.614Z,101250.30
2022-08-22T09:35:26.425Z,101251.42
2022-08-22T09:38:02.999Z,101248.44
2022-08-22T09:41:02.223Z,101252.56
2022-08-22T09:43:33.696Z,101251.82
2022-08-22T09:46:32.124Z,101253.70
2022-08-22T09:49:35.030Z,101256.67
2022-08-22T09:51:43.961Z,101253.04
2022-08-22T09:53:58.696Z,101254.30
2022-08-22T09:56:57.102Z,101254.08
2022-08-22T09:59:22.704Z,101254.10
2022-08-22T10:01:52.093Z,101249.61
2022-08-22T10:04:28.578Z,101252.05
2022-08-22T10:06:50.090Z,101254.25
2022-08-22T10:09:11.902Z,101254.80
2022-08-22T10:12:03.422Z,101256.73
2022-08-22T10:14:52.092Z,101258.46
2022-08-22T10:17:41.034Z,101258.06
2022-08-22T10:20:02.661Z,101259.81
2022-08-22T10:23:07.933Z,101260.66
2022-08-22T10:25:33.530Z,101261.21
2022-08-22T10:28:19.432Z,101263.17
2022-08-22T10:30:35.458Z,101268.17
2022-08-22T10:32:54.103Z,101270.45
2022-08-22T10:35:15.326Z,101274.72
2022-08-22T10:38:02.475Z,101272.86
2022-08-22T10:41:03.727Z,101277.79
2022-08-22T10:44:03.871Z,101286.05
2022-08-22T10:46:42.402Z,101285.86
2022-08-22T10:49:07.869Z,101287.61
2022-08-22T10:52:19.777Z,101289.31
2022-08-22T10:55:19.197Z,101293.67
2022-08-22T10:57:31.383Z,101296.27
2022-08-22T10:59:51.892Z,101295.44
2022-08-22T11:02:31.033Z,101298.59
2022-08-22T11:05:31.231Z,101295.57
2022-08-22T11:08:00.526Z,101289.92
2022-08-22T11:11:03.993Z,101290.80
2022-08-22T11:13:16.336Z,101287.84
2022-08-22T11:15:36.174Z,101288.34
2022-08-22T11:18:23.229Z,101288.24
2022-08-22T11:20:50.901Z,101292.96
2022-08-22T11:23:01.612Z,101292.23
2022-08-22T11:26:14.679Z,101290.52
2022-08-22T11:29:14.309Z,101289.80
2022-08-22T11:31:22.677Z,101293.36
2022-08-22T11:33:55.947Z,101296.23
2022-08-22T11:36:57.490Z,101298.45
2022-08-22T11:39:18.993Z,101299.46
2022-08-22T11:41:40.100Z,101298.60
2022-08-22T11:44:00.785Z,101296.39
2022-08-22T11:46:36.706Z,101301.61
2022-08-22T11:49:07.670Z,101300.61
2022-08-22T11:52:02.812Z,101299.04
2022-08-22T11:54:58.191Z,101302.71
2022-08-22T11:57:19.545Z,101304.57
2022-08-22T12:00:04.779Z,101302.91
2022-08-22T12:02:36.424Z,101300.14
2022-08-22T12:04:59.342Z,101301.21
2022-08-22T12:07:53.646Z,101297.17
2022-08-22T12:10:26.800Z,101299.09
2022-08-22T12:13:00.753Z,101302.43
2022-08-22T12:15:15.143Z,101302.17
2022-08-22T12:17:55.450Z,101305.52
2022-08-22T12:20:38.764Z,101306.40
2022-08-22T12:23:48.978Z,101307.30
2022-08-22T12:26:41.005Z,101308.62
2022-08-22T12:29:27.448Z,101314.27
2022-08-22T12:32:01.682Z,101314.11
2022-08-22T12:34:33.374Z,101316.65
2022-08-22T12:36:47.119Z,101316.09
2022-08-22T12:39:43.319Z,101315.55
2022-08-22T12:42:12.571Z,101315.86
2022-08-22T12:44:57.417Z,101316.58
2022-08-22T12:47:26.842Z,101323.64
2022-08-22T12:49:57.978Z,101321.41
2022-08-22T12:52:52.274Z,101330.55
2022-08-22T12:55:02.118Z,101333.18
2022-08-22T12:57:30.982Z,101338.37
2022-08-22T12:59:48.301Z,101341.00
2022-08-22T13:01:59.469Z,101343.15
2022-08-22T13:04:32.767Z,101341.97
2022-08-22T13:06:41.097Z,101341.52
2022-08-22T13:08:49.527Z,101338.83
2022-08-22T13:11:10.057Z,101344.46
2022-08-22T13:13:38.830Z,101347.41
2022-08-22T13:16:20.863Z,101353.08
2022-08-22T13:18:38.799Z,101355.31
2022-08-22T13:20:56.470Z,101357.54
2022-08-22T13:23:12.581Z,101364.32
2022-08-22T13:26:07.507Z,101367.89
2022-08-22T13:28:18.213Z,101369.00
2022-08-22T13:30:34.686Z,101374.75
2022-08-22T13:33:01.066Z,101379.59
2022-08-22T13:35:14.348Z,101382.85
2022-08-22T13:37:32.082Z,101385.46
2022-08-22T13:39:44.072Z,101392.38
2022-08-22T13:42:14.186Z,101395.90
2022-08-22T13:44:40.550Z,101396.77
2022-08-22T13:47:15.553Z,101399.61
2022-08-22T13:49:36.502Z,101404.77
2022-08-22T13:52:52.506Z,101410.94
2022-08-22T13:55:19.229Z,101412.29
2022-08-22T13:57:39.059Z,101409.99
2022-08-22T14:00:11.198Z,101411.98
2022-08-22T14:02:20.427Z,101414.35
2022-08-22T14:04:42.924Z,101416.42
2022-08-22T14:07:15.961Z,101421.13
2022-08-22T14:10:24.538Z,101420.27
2022-08-22T14:13:37.746Z,101425.61
2022-08-22T14:15:46.234Z,101431.77
2022-08-22T14:18:15.762Z,101440.92
2022-08-22T14:20:32.397Z,101443.27
2022-08-22T14:22:43.842Z,101448.81
2022-08-22T14:25:00.201Z,101447.73
2022-08-22T14:27:11.985Z,101452.60
2022-08-22T14:29:27.038Z,101454.78
2022-08-22T14:31:45.584Z,101455.68
2022-08-22T14:34:04.156Z,101453.67
2022-08-22T14:36:21.226Z,101460.73
2022-08-22T14:39:09.195Z,101467.30
2022-08-22T14:41:55.706Z,101468.20
2022-08-22T14:44:20.339Z,101472.44
2022-08-22T14:46:56.804Z,101471.31
2022-08-22T14:49:44.150Z,101472.45
2022-08-22T14:51:56.552Z,101480.35
2022-08-22T14:54:28.960Z,101480.91
2022-08-22T14:56:39.834Z,101480.37
2022-08-22T14:59:14.900Z,101482.91
2022-08-22T15:02:04.693Z,101481.52
2022-08-22T15:05:05.626Z,101482.89
2022-08-22T15:07:36.548Z,101481.26
2022-08-22T15:10:23.090Z,101486.22
2022-08-22T15:13:00.114Z,101483.50
2022-08-22T15:16:03.493Z,101482.40
2022-08-22T15:18:52.037Z,101485.33
2022-08-22T15:21:10.336Z,101485.73
2022-08-22T15:23:26.877Z,101486.38
2022-08-22T15:25:47.082Z,101481.14
2022-08-22T15:28:05.713Z,101482.10
2022-08-22T15:30:21.011Z,101481.02
2022-08-22T15:32:42.008Z,101484.02
2022-08-22T15:35:16.623Z,101478.32
2022-08-22T15:37:34.327Z,101482.55
2022-08-22T15:40:10.757Z,101489.11
2022-08-22T15:42:28.773Z,101493.89
2022-08-22T15:44:49.443Z,101490.97
2022-08-22T15:48:20.373Z,101490.32
2022-08-22T15:51:02.627Z,101491.10
2022-08-22T15:53:34.061Z,101489.80
2022-08-22T15:56:35.902Z,101488.59
2022-08-22T15:58:49.607Z,101488.61
2022-08-22T16:01:19.196Z,101492.67
2022-08-22T16:03:30.442Z,101490.39
2022-08-22T16:05:37.194Z,101485.67
2022-08-22T16:07:48.666Z,101484.60
2022-08-22T16:10:00.206Z,101487.59
2022-08-22T16:12:40.224Z,101488.11
2022-08-22T16:14:56.928Z,101491.20
2022-08-22T16:17:09.336Z,101493.59
2022-08-22T16:19:27.682Z,101494.66
2022-08-22T16:22:08.837Z,101499.02
2022-08-22T16:24:18.197Z,101505.41
2022-08-22T16:26:31.417Z,101500.21
2022-08-22T16:29:17.343Z,101504.28
2022-08-22T16:31:42.629Z,101504.36
2022-08-22T16:33:50.106Z,101510.05
2022-08-22T16:36:19.502Z,101509.45
2022-08-22T16:38:45.444Z,101511.39
2022-08-22T16:40:52.225Z,101510.86
2022-08-22T16:43:18.846Z,101515.15
2022-08-22T16:45:40.101Z,101515.60
2022-08-22T16:47:58.159Z,101513.15
2022-08-22T16:50:26.367Z,101513.98
2022-08-22T16:52:53.353Z,101515.81
2022-08-22T16:55:32.328Z,101516.40
2022-08-22T16:58:05.379Z,101518.19
2022-08-22T17:00:44.844Z,101518.15
2022-08-22T17:03:27.464Z,101518.42
2022-08-22T17:06:34.894Z,101517.02
2022-08-22T17:09:10.642Z,101512.48
2022-08-22T17:11:57.300Z,101516.88
2022-08-22T17:14:29.186Z,101518.56
2022-08-22T17:17:11.268Z,101515.92
2022-08-22T17:19:35.755Z,101515.81
2022-08-22T17:22:08.151Z,101516.77
2022-08-22T17:24:53.808Z,101514.92
2022-08-22T17:27:18.421Z,101514.98
2022-08-22T17:29:33.311Z,101514.95
2022-08-22T17:32:02.485Z,101514.71
2022-08-22T17:35:00.018Z,101514.55
2022-08-22T17:38:08.895Z,101518.09
2022-08-22T17:40:32.419Z,101519.23
2022-08-22T17:43:09.196Z,101519.73
2022-08-22T17:45:53.851Z,101519.41
2022-08-22T17:48:36.047Z,101518.48
2022-08-22T17:51:00.277Z,101520.06
2022-08-22T17:53:43.349Z,101521.13
2022-08-22T17:56:24.055Z,101525.03
2022-08-22T17:58:51.997Z,101524.76
2022-08-22T18:01:14.972Z,101523.98
2022-08-22T18:04:34.038Z,101523.81
2022-08-22T18:07:21.170Z,101529.27
2022-08-22T18:09:48.536Z,101527.34
2022-08-22T18:12:18.405Z,101525.08
2022-08-22T18:14:34.988Z,101522.84
2022-08-22T18:17:14.240Z,101524.69
2022-08-22T18:19:42.043Z,101521.61
2022-08-22T18:21:59.886Z,101522.58
2022-08-22T18:24:12.056Z,101522.45
2022-08-22T18:26:46.552Z,101524.11
2022-08-22T18:29:09.549Z,101525.90
2022-08-22T18:31:49.897Z,101522.96
2022-08-22T18:34:30.248Z,101518.50
2022-08-22T18:36:58.912Z,101520.41
2022-08-22T18:39:32.973Z,101517.50
2022-08-22T18:42:16.490Z,101518.59
2022-08-22T18:44:33.877Z,101512.92
2022-08-22T18:47:05.295Z,101507.54
2022-08-22T18:49:49.471Z,101506.20
2022-08-22T18:52:30.787Z,101500.36
2022-08-22T18:55:23.639Z,101500.91
2022-08-22T18:57:57.352Z,101498.51
2022-08-22T19:00:22.727Z,101496.20
2022-08-22T19:03:25.235Z,101491.02
2022-08-22T19:06:20.613Z,101489.23
2022-08-22T19:09:40.400Z,101491.69
2022-08-22T19:12:41.189Z,101490.16
2022-08-22T19:15:26.364Z,101490.84
2022-08-22T19:17:57.328Z,101492.45
2022-08-22T19:20:51.944Z,101491.92
2022-08-22T19:23:37.237Z,101483.57
2022-08-22T19:26:32.122Z,101481.65
2022-08-22T19:28:48.343Z,101481.88
2022-08-22T19:31:45.256Z,101478.39
2022-08-22T19:34:40.077Z,101479.52
2022-08-22T19:37:36.084Z,101475.40
2022-08-22T19:40:08.652Z,101474.23
2022-08-22T19:42:40.852Z,101476.31
2022-08-22T19:45:30.142Z,101468.95
2022-08-22T19:48:19.873Z,101469.67
2022-08-22T19:50:34.144Z,101463.96
2022-08-22T19:52:59.973Z,101465.17
2022-08-22T19:55:24.166Z,101466.98
2022-08-22T19:58:09.523Z,101465.16
2022-08-22T20:01:36.654Z,101460.54
2022-08-22T20:04:21.232Z,101459.48
2022-08-22T20:07:28.946Z,101458.56
2022-08-22T20:10:28.770Z,101457.27
2022-08-22T20:13:25.793Z,101456.52
2022-08-22T20:15:35.242Z,101454.30
2022-08-22T20:20:43.670Z,101454.63
2022-08-22T20:23:02.584Z,101446.96
2022-08-22T20:25:17.123Z,101449.53
2022-08-22T20:27:54.354Z,101449.73
2022-08-22T20:30:44.568Z,101448.02
2022-08-22T20:32:58.244Z,101445.82
2022-08-22T20:35:22.946Z,101446.25
2022-08-22T20:38:08.649Z,101441.36
2022-08-22T20:41:16.141Z,101437.54
2022-08-22T20:43:40.836Z,101434.90
2022-08-22T20:46:43.894Z,101434.66
2022-08-22T20:48:59.102Z,101432.90
2022-08-22T20:51:15.502Z,101431.14
2022-08-22T20:53:37.896Z,101422.66
2022-08-22T20:55:58.883Z,101419.77
2022-08-22T20:58:37.795Z,101421.44
2022-08-22T21:00:52.619Z,101417.80
2022-08-22T21:03:28.568Z,101416.66
2022-08-22T21:05:44.294Z,101416.13
2022-08-22T21:08:32.482Z,101417.89
2022-08-22T21:10:58.615Z,101416.30
2022-08-22T21:13:11.185Z,101414.41
2022-08-22T21:15:39.112Z,101409.92
2022-08-22T21:17:53.096Z,101411.37
2022-08-22T21:20:32.319Z,101410.52
2022-08-22T21:22:54.286Z,101402.80
2022-08-22T21:25:41.330Z,101402.15
2022-08-22T21:28:01.085Z,101399.41
2022-08-22T21:30:13.954Z,101397.98
2022-08-22T21:32:56.209Z,101397.40
2022-08-22T21:35:11.635Z,101392.38
2022-08-22T21:37:50.529Z,101388.80
2022-08-22T21:40:25.066Z,101382.83
2022-08-22T21:42:50.155Z,101379.63
2022-08-22T21:45:13.727Z,101375.05
2022-08-22T21:47:39.133Z,101372.58
2022-08-22T21:50:21.231Z,101373.74
2022-08-22T21:52:38.141Z,101370.07
2022-08-22T21:54:56.302Z,101364.95
2022-08-22T21:57:17.346Z,101368.80
2022-08-22T21:59:51.593Z,101368.01
2022-08-22T22:02:48.084Z,101363.55
2022-08-22T22:05:27.638Z,101362.38
2022-08-22T22:07:46.732Z,101354.23
2022-08-22T22:10:34.215Z,101349.97
2022-08-22T22:13:18.159Z,101345.81
2022-08-22T22:15:27.791Z,101349.16
2022-08-22T22:17:53.522Z,101343.91
2022-08-22T22:20:17.858Z,101340.64
2022-08-22T22:22:25.254Z,101337.64
2022-08-22T22:24:43.421Z,101339.10
2022-08-22T22:26:52.471Z,101338.34
2022-08-22T22:29:00.342Z,101332.42
2022-08-22T22:31:42.855Z,101327.59
2022-08-22T22:34:20.436Z,101328.82
2022-08-22T22:36:47.943Z,101317.98
2022-08-22T22:39:00.840Z,101315.09
2022-08-22T22:41:26.392Z,101308.18
2022-08-22T22:43:49.323Z,101305.34
2022-08-22T22:46:11.140Z,101296.92
2022-08-22T22:48:32.845Z,101297.86
2022-08-22T22:50:51.798Z,101293.23
2022-08-22T22:53:19.619Z,101294.89
2022-08-22T22:56:00.664Z,101294.70
2022-08-22T22:58:17.847Z,101290.41
2022-08-22T23:00:53.010Z,101284.34
2022-08-22T23:03:09.700Z,101282.64
2022-08-22T23:05:22.997Z,101282.59
2022-08-22T23:07:39.513Z,101277.26
2022-08-22T23:09:46.573Z,101282.38
2022-08-22T23:11:59.191Z,101278.20
2022-08-22T23:14:09.142Z,101279.90
2022-08-22T23:16:26.889Z,101279.39
2022-08-22T23:18:43.548Z,101277.33
2022-08-22T23:20:54.205Z,101269.79
2022-08-22T23:23:20.055Z,101273.29
2022-08-22T23:25:40.784Z,101272.23
2022-08-22T23:28:07.511Z,101263.73
2022-08-22T23:30:34.289Z,101269.13
2022-08-22T23:33:18.698Z,101267.52
2022-08-22T23:35:42.553Z,101266.73
2022-08-22T23:37:59.129Z,101266.56
2022-08-22T23:40:09.315Z,101264.09
2022-08-22T23:42:20.590Z,101267.86
2022-08-22T23:44:31.799Z,101268.39
2022-08-22T23:46:43.249Z,101264.71
2022-08-22T23:48:59.290Z,101261.57
2022-08-22T23:51:57.701Z,101263.79
2022-08-22T23:54:13.718Z,101263.77
2022-08-22T23:56:58.515Z,101264.84
2022-08-22T23:59:16.776Z,101261.95
